createdAt,value
2019-03-24T00:01:01.024Z,20.32
2019-03-24T00:03:32.408Z,19.50
2019-03-24T00:06:03.873Z,19.23
2019-03-24T00:08:35.285Z,19.73
2019-03-24T00:11:06.861Z,20.35
2019-03-24T00:13:38.245Z,19.73
2019-03-24T00:16:09.600Z,22.25
2019-03-24T00:18:40.992Z,20.23
2019-03-24T00:21:12.468Z,18.98
2019-03-24T00:23:43.884Z,16.87
2019-03-24T00:26:15.268Z,21.15
2019-03-24T00:28:46.662Z,18.37
2019-03-24T00:31:18.151Z,18.50
2019-03-24T00:33:49.557Z,16.82
2019-03-24T00:36:20.942Z,19.85
2019-03-24T00:38:52.320Z,18.70
2019-03-24T00:41:23.748Z,14.63
2019-03-24T00:43:55.116Z,20.72
2019-03-24T00:46:26.509Z,18.10
2019-03-24T00:48:57.919Z,17.00
2019-03-24T00:51:29.394Z,18.10
2019-03-24T00:54:00.800Z,15.88
2019-03-24T00:56:32.196Z,17.98
2019-03-24T00:59:03.593Z,19.07
2019-03-24T01:01:34.984Z,16.97
2019-03-24T01:04:06.482Z,15.90
2019-03-24T01:06:37.882Z,13.10
2019-03-24T01:09:09.993Z,13.03
2019-03-24T01:11:41.349Z,14.13
2019-03-24T01:14:12.753Z,14.03
2019-03-24T01:16:44.124Z,14.20
2019-03-24T01:19:15.557Z,16.60
2019-03-24T01:21:47.032Z,13.65
2019-03-24T01:24:18.436Z,14.87
2019-03-24T01:26:49.797Z,16.62
2019-03-24T01:29:21.182Z,11.18
2019-03-24T01:31:52.546Z,12.88
2019-03-24T01:34:23.972Z,15.20
2019-03-24T01:36:55.380Z,12.58
2019-03-24T01:39:26.764Z,8.78
2019-03-24T01:41:58.158Z,13.68
2019-03-24T01:44:29.646Z,14.65
2019-03-24T01:47:01.138Z,12.28
2019-03-24T01:49:32.541Z,10.82
2019-03-24T01:52:04.041Z,12.85
2019-03-24T01:54:35.494Z,10.72
2019-03-24T01:57:06.872Z,11.30
2019-03-24T01:59:38.288Z,12.58
2019-03-24T02:02:09.695Z,14.58
2019-03-24T02:04:42.234Z,13.43
2019-03-24T02:07:13.730Z,11.73
2019-03-24T02:09:45.158Z,13.85
2019-03-24T02:12:16.630Z,11.20
2019-03-24T02:14:48.020Z,13.68
2019-03-24T02:17:19.388Z,10.38
2019-03-24T02:19:51.596Z,12.70
2019-03-24T02:22:22.975Z,8.60
2019-03-24T02:24:54.367Z,12.03
2019-03-24T02:27:25.768Z,15.95
2019-03-24T02:29:57.156Z,12.90
2019-03-24T02:32:28.539Z,10.68
2019-03-24T02:34:59.933Z,10.00
2019-03-24T02:37:31.334Z,8.83
2019-03-24T02:40:02.705Z,15.35
2019-03-24T02:42:34.091Z,7.20
2019-03-24T02:45:05.614Z,11.00
2019-03-24T02:47:39.383Z,10.25
2019-03-24T02:50:11.184Z,10.28
2019-03-24T02:52:42.562Z,9.10
2019-03-24T02:55:14.140Z,6.83
2019-03-24T02:57:45.524Z,10.60
2019-03-24T03:00:17.426Z,14.65
2019-03-24T03:02:48.914Z,12.23
2019-03-24T03:05:20.312Z,14.98
2019-03-24T03:07:51.696Z,12.50
2019-03-24T03:10:23.111Z,13.40
2019-03-24T03:12:54.489Z,12.82
2019-03-24T03:15:25.891Z,10.65
2019-03-24T03:17:57.248Z,12.85
2019-03-24T03:20:28.729Z,11.60
2019-03-24T03:23:00.217Z,11.33
2019-03-24T03:25:31.671Z,13.93
2019-03-24T03:28:03.066Z,14.05
2019-03-24T03:30:34.898Z,12.93
2019-03-24T03:33:08.528Z,13.55
2019-03-24T03:35:39.978Z,10.28
2019-03-24T03:38:11.349Z,11.93
2019-03-24T03:40:42.869Z,10.93
2019-03-24T03:43:14.436Z,17.62
2019-03-24T03:45:45.888Z,12.70
2019-03-24T03:48:18.348Z,12.50
2019-03-24T03:50:49.745Z,14.23
2019-03-24T03:53:21.163Z,10.48
2019-03-24T03:55:52.601Z,11.28
2019-03-24T03:58:23.977Z,7.55
2019-03-24T04:00:55.357Z,10.38
2019-03-24T04:03:26.766Z,12.07
2019-03-24T04:05:58.173Z,14.83
2019-03-24T04:08:29.555Z,11.75
2019-03-24T04:11:00.995Z,12.85
2019-03-24T04:13:32.386Z,13.18
2019-03-24T04:16:03.791Z,11.57
2019-03-24T04:18:35.168Z,13.75
2019-03-24T04:21:06.694Z,13.93
2019-03-24T04:23:38.103Z,11.70
2019-03-24T04:26:09.505Z,14.07
2019-03-24T04:28:40.909Z,12.85
2019-03-24T04:31:12.339Z,10.72
2019-03-24T04:33:43.794Z,13.85
2019-03-24T04:36:15.217Z,11.90
2019-03-24T04:38:46.607Z,15.13
2019-03-24T04:41:17.986Z,12.63
2019-03-24T04:43:49.384Z,16.00
2019-03-24T04:46:20.804Z,14.53
2019-03-24T04:48:52.212Z,12.75
2019-03-24T04:51:23.630Z,11.10
2019-03-24T04:53:54.998Z,12.33
2019-03-24T04:56:26.396Z,13.32
2019-03-24T04:58:57.779Z,14.70
2019-03-24T05:01:29.187Z,11.00
2019-03-24T05:04:00.594Z,13.98
2019-03-24T05:06:32.524Z,17.90
2019-03-24T05:09:05.124Z,9.50
2019-03-24T05:11:36.876Z,14.23
2019-03-24T05:14:09.249Z,15.93
2019-03-24T05:16:40.665Z,14.75
2019-03-24T05:19:12.074Z,17.45
2019-03-24T05:21:43.573Z,10.25
2019-03-24T05:24:14.945Z,15.88
2019-03-24T05:26:46.344Z,10.80
2019-03-24T05:29:17.754Z,10.68
2019-03-24T05:31:49.164Z,12.68
2019-03-24T05:34:20.553Z,11.60
2019-03-24T05:36:51.924Z,9.93
2019-03-24T05:39:23.292Z,11.70
2019-03-24T05:41:54.740Z,11.68
2019-03-24T05:44:26.190Z,11.70
2019-03-24T05:46:57.609Z,11.20
2019-03-24T05:49:29.004Z,11.90
2019-03-24T05:52:00.437Z,13.28
2019-03-24T05:54:31.811Z,12.68
2019-03-24T05:57:03.228Z,10.55
2019-03-24T05:59:34.608Z,9.78
2019-03-24T06:02:06.058Z,15.50
2019-03-24T06:04:37.767Z,11.05
2019-03-24T06:07:09.163Z,8.90
2019-03-24T06:09:40.519Z,7.22
2019-03-24T06:12:12.028Z,11.05
2019-03-24T06:14:44.421Z,8.28
2019-03-24T06:17:15.815Z,10.48
2019-03-24T06:19:47.291Z,11.20
2019-03-24T06:22:18.720Z,12.40
2019-03-24T06:24:50.144Z,17.70
2019-03-24T06:27:21.580Z,17.23
2019-03-24T06:29:52.993Z,11.43
2019-03-24T06:32:24.414Z,13.03
2019-03-24T06:34:55.826Z,12.85
2019-03-24T06:37:27.254Z,10.80
2019-03-24T06:39:58.697Z,11.55
2019-03-24T06:42:30.100Z,9.30
2019-03-24T06:45:01.503Z,9.83
2019-03-24T06:47:32.908Z,9.48
2019-03-24T06:50:04.408Z,9.73
2019-03-24T06:52:35.924Z,10.00
2019-03-24T06:55:07.492Z,8.90
2019-03-24T06:57:39.964Z,8.53
2019-03-24T07:00:12.072Z,12.00
2019-03-24T07:02:43.479Z,11.93
2019-03-24T07:05:15.256Z,11.53
2019-03-24T07:07:46.731Z,9.63
2019-03-24T07:10:18.116Z,10.40
2019-03-24T07:12:51.425Z,12.10
2019-03-24T07:15:22.574Z,11.57
2019-03-24T07:17:53.960Z,10.23
2019-03-24T07:20:25.334Z,11.48
2019-03-24T07:22:56.703Z,7.95
2019-03-24T07:25:28.062Z,7.53
2019-03-24T07:27:59.444Z,10.93
2019-03-24T07:30:30.849Z,10.03
2019-03-24T07:33:02.256Z,9.40
2019-03-24T07:35:33.652Z,13.60
2019-03-24T07:38:05.116Z,10.08
2019-03-24T07:40:36.573Z,7.58
2019-03-24T07:43:08.018Z,9.73
2019-03-24T07:45:39.493Z,8.08
2019-03-24T07:48:18.776Z,13.70
2019-03-24T07:50:43.961Z,9.88
2019-03-24T07:53:15.460Z,13.60
2019-03-24T07:55:47.920Z,8.90
2019-03-24T07:58:19.361Z,10.20
2019-03-24T08:00:50.748Z,9.58
2019-03-24T08:03:22.156Z,8.78
2019-03-24T08:05:53.561Z,7.00
2019-03-24T08:08:24.952Z,6.83
2019-03-24T08:10:56.357Z,7.10
2019-03-24T08:13:27.748Z,15.68
2019-03-24T08:15:59.140Z,16.23
2019-03-24T08:18:30.600Z,9.83
2019-03-24T08:21:01.993Z,9.45
2019-03-24T08:23:33.380Z,8.88
2019-03-24T08:26:05.070Z,8.30
2019-03-24T08:28:36.464Z,14.05
2019-03-24T08:31:07.835Z,8.55
2019-03-24T08:33:39.224Z,7.20
2019-03-24T08:36:10.592Z,8.93
2019-03-24T08:38:42.020Z,7.40
2019-03-24T08:41:13.448Z,8.35
2019-03-24T08:43:45.032Z,10.38
2019-03-24T08:46:16.476Z,10.23
2019-03-24T08:48:47.841Z,6.22
2019-03-24T08:51:19.336Z,12.65
2019-03-24T08:53:50.804Z,6.55
2019-03-24T08:56:22.160Z,4.15
2019-03-24T08:58:53.560Z,8.10
2019-03-24T09:01:24.938Z,6.15
2019-03-24T09:03:56.336Z,8.45
2019-03-24T09:06:27.790Z,6.45
2019-03-24T09:08:59.227Z,6.05
2019-03-24T09:11:31.448Z,6.08
2019-03-24T09:14:03.146Z,9.23
2019-03-24T09:16:34.595Z,8.20
2019-03-24T09:19:06.104Z,6.50
2019-03-24T09:21:37.472Z,5.20
2019-03-24T09:24:08.902Z,8.83
2019-03-24T09:26:40.308Z,6.83
2019-03-24T09:29:11.660Z,5.92
2019-03-24T09:31:43.079Z,7.20
2019-03-24T09:34:14.492Z,8.73
2019-03-24T09:36:45.903Z,5.83
2019-03-24T09:39:17.332Z,7.22
2019-03-24T09:41:48.708Z,6.85
2019-03-24T09:44:20.099Z,7.92
2019-03-24T09:46:51.488Z,6.92
2019-03-24T09:49:22.868Z,6.30
2019-03-24T09:51:54.250Z,8.55
2019-03-24T09:54:25.654Z,6.47
2019-03-24T09:56:57.028Z,5.30
2019-03-24T09:59:28.423Z,7.80
2019-03-24T10:01:59.801Z,5.75
2019-03-24T10:04:31.168Z,6.55
2019-03-24T10:07:02.554Z,5.37
2019-03-24T10:09:33.984Z,6.17
2019-03-24T10:12:05.400Z,6.35
2019-03-24T10:14:36.829Z,5.97
2019-03-24T10:17:08.207Z,5.15
2019-03-24T10:19:40.655Z,7.28
2019-03-24T10:22:12.072Z,6.65
2019-03-24T10:24:43.456Z,6.53
2019-03-24T10:27:14.867Z,4.87
2019-03-24T10:29:46.272Z,4.75
2019-03-24T10:32:17.630Z,6.47
2019-03-24T10:34:49.017Z,5.80
2019-03-24T10:37:20.406Z,6.47
2019-03-24T10:39:51.822Z,5.58
2019-03-24T10:42:23.164Z,4.75
2019-03-24T10:44:54.637Z,6.20
2019-03-24T10:47:26.029Z,9.25
2019-03-24T10:49:57.465Z,4.83
2019-03-24T10:52:30.604Z,6.22
2019-03-24T10:55:01.942Z,9.75
2019-03-24T10:57:34.604Z,10.60
2019-03-24T11:00:07.448Z,4.47
2019-03-24T11:02:38.956Z,3.92
2019-03-24T11:05:12.178Z,4.85
2019-03-24T11:07:43.573Z,7.37
2019-03-24T11:10:16.151Z,6.30
2019-03-24T11:12:48.252Z,5.22
2019-03-24T11:15:19.667Z,5.95
2019-03-24T11:17:57.054Z,4.67
2019-03-24T11:20:33.522Z,9.00
2019-03-24T11:23:06.532Z,7.80
2019-03-24T11:25:41.233Z,6.17
2019-03-24T11:28:12.711Z,6.00
2019-03-24T11:30:46.729Z,5.92
2019-03-24T11:33:18.132Z,4.17
2019-03-24T11:35:49.685Z,4.75
2019-03-24T11:38:22.793Z,4.47
2019-03-24T11:40:56.692Z,5.70
2019-03-24T11:43:28.144Z,7.12
2019-03-24T11:45:59.550Z,5.05
2019-03-24T11:48:31.072Z,6.30
2019-03-24T11:51:02.494Z,4.65
2019-03-24T11:53:33.908Z,5.35
2019-03-24T11:56:05.713Z,4.60
2019-03-24T11:58:37.120Z,3.02
2019-03-24T12:01:14.821Z,4.95
2019-03-24T12:03:47.899Z,5.90
2019-03-24T12:06:19.735Z,4.65
2019-03-24T12:08:51.241Z,4.65
2019-03-24T12:11:22.661Z,3.52
2019-03-24T12:13:54.142Z,7.12
2019-03-24T12:16:25.571Z,3.55
2019-03-24T12:18:56.995Z,5.08
2019-03-24T12:21:28.413Z,7.65
2019-03-24T12:23:59.837Z,7.85
2019-03-24T12:26:31.260Z,5.85
2019-03-24T12:29:02.682Z,9.78
2019-03-24T12:31:35.149Z,11.55
2019-03-24T12:34:09.477Z,8.15
2019-03-24T12:36:40.884Z,7.10
2019-03-24T12:39:12.283Z,7.75
2019-03-24T12:41:43.753Z,9.45
2019-03-24T12:44:15.176Z,6.28
2019-03-24T12:46:50.122Z,6.25
2019-03-24T12:49:21.281Z,8.80
2019-03-24T12:51:52.675Z,6.55
2019-03-24T12:54:25.511Z,10.72
2019-03-24T12:56:57.086Z,9.18
2019-03-24T12:59:28.454Z,5.58
2019-03-24T13:01:59.917Z,11.35
2019-03-24T13:04:31.333Z,9.50
2019-03-24T13:07:02.775Z,8.33
2019-03-24T13:09:34.208Z,8.73
2019-03-24T13:12:05.845Z,6.83
2019-03-24T13:14:37.269Z,8.78
2019-03-24T13:17:08.693Z,7.35
2019-03-24T13:19:40.110Z,6.95
2019-03-24T13:22:11.483Z,14.78
2019-03-24T13:24:42.899Z,11.78
2019-03-24T13:27:14.542Z,12.03
2019-03-24T13:29:45.948Z,10.30
2019-03-24T13:32:18.634Z,12.18
2019-03-24T13:34:50.037Z,16.57
2019-03-24T13:37:21.585Z,15.55
2019-03-24T13:39:53.028Z,12.95
2019-03-24T13:42:24.459Z,14.20
2019-03-24T13:44:55.853Z,10.48
2019-03-24T15:09:24.463Z,25.12
2019-03-24T15:12:13.963Z,19.37
2019-03-24T15:14:45.363Z,19.15
2019-03-24T15:17:16.791Z,17.25
2019-03-24T15:19:48.185Z,19.27
2019-03-24T15:22:19.647Z,16.93
2019-03-24T15:24:51.036Z,17.60
2019-03-24T15:27:22.528Z,61.25
2019-03-24T15:29:54.202Z,22.98
2019-03-24T15:32:25.912Z,30.72
2019-03-24T15:34:57.336Z,25.72
2019-03-24T15:37:28.824Z,13.98
2019-03-24T15:40:00.426Z,14.28
2019-03-24T15:42:31.840Z,9.43
2019-03-24T15:45:03.324Z,9.33
2019-03-24T15:47:34.816Z,9.68
2019-03-24T15:50:06.852Z,10.80
2019-03-24T15:52:38.482Z,10.80
2019-03-24T15:55:09.940Z,8.40
2019-03-24T15:57:41.344Z,6.78
2019-03-24T16:00:15.488Z,6.80
2019-03-24T16:02:46.948Z,8.10
2019-03-24T16:05:18.312Z,10.75
2019-03-24T16:07:49.872Z,8.15
2019-03-24T16:10:22.090Z,9.95
2019-03-24T16:12:53.531Z,9.60
2019-03-24T16:15:24.962Z,10.15
2019-03-24T16:17:56.409Z,15.85
2019-03-24T16:20:29.684Z,10.88
2019-03-24T16:23:01.188Z,9.48
2019-03-24T16:25:32.616Z,11.40
2019-03-24T16:28:04.206Z,11.63
2019-03-24T16:30:36.060Z,13.53
2019-03-24T16:33:07.675Z,10.78
2019-03-24T16:35:39.190Z,44.08
2019-03-24T16:38:10.648Z,17.25
2019-03-24T16:40:42.100Z,15.72
2019-03-24T16:43:13.996Z,13.85
2019-03-24T16:45:47.255Z,23.70
2019-03-24T16:48:18.569Z,12.35
2019-03-24T16:50:50.064Z,14.65
2019-03-24T16:53:23.144Z,15.35
2019-03-24T16:55:54.581Z,16.52
2019-03-24T16:58:25.991Z,17.05
2019-03-24T17:00:57.361Z,23.10
2019-03-24T17:03:28.896Z,17.90
2019-03-24T17:06:02.401Z,17.42
2019-03-24T17:08:33.989Z,20.92
2019-03-24T17:11:05.784Z,14.95
2019-03-24T17:13:37.210Z,23.87
2019-03-24T17:16:10.010Z,20.17
2019-03-24T17:18:42.439Z,17.10
2019-03-24T17:21:14.044Z,17.60
2019-03-24T17:23:45.462Z,14.45
2019-03-24T17:26:16.883Z,14.90
2019-03-24T17:28:48.289Z,12.23
2019-03-24T17:31:19.725Z,13.55
2019-03-24T17:33:53.272Z,14.55
2019-03-24T17:36:24.709Z,15.68
2019-03-24T17:38:56.212Z,12.60
2019-03-24T17:41:28.028Z,11.33
2019-03-24T17:44:03.351Z,11.65
2019-03-24T17:46:32.553Z,12.47
2019-03-24T17:49:04.189Z,12.93
2019-03-24T17:51:35.642Z,10.93
2019-03-24T17:54:07.448Z,14.05
2019-03-24T17:56:38.848Z,8.85
2019-03-24T17:59:10.322Z,11.12
2019-03-24T18:01:42.134Z,10.68
2019-03-24T18:04:13.545Z,9.53
2019-03-24T18:06:48.329Z,10.30
2019-03-24T18:09:19.768Z,9.93
2019-03-24T18:11:51.197Z,9.40
2019-03-24T18:14:22.629Z,8.78
2019-03-24T18:16:54.204Z,9.93
2019-03-24T18:19:25.729Z,7.75
2019-03-24T18:21:58.401Z,10.53
2019-03-24T18:24:31.152Z,9.55
2019-03-24T18:27:02.597Z,14.25
2019-03-24T18:29:34.216Z,10.90
2019-03-24T18:32:06.285Z,9.23
2019-03-24T18:34:37.705Z,8.83
2019-03-24T18:37:10.305Z,10.88
2019-03-24T18:39:41.776Z,10.28
2019-03-24T18:42:14.834Z,13.55
2019-03-24T18:44:47.778Z,11.18
2019-03-24T18:47:19.224Z,8.53
2019-03-24T18:49:52.065Z,11.38
2019-03-24T18:52:23.505Z,9.83
2019-03-24T18:54:54.943Z,7.67
2019-03-24T18:57:26.541Z,11.83
2019-03-24T18:59:59.566Z,8.63
2019-03-24T19:02:30.946Z,7.65
2019-03-24T19:05:02.368Z,11.10
2019-03-24T19:07:34.007Z,10.98
2019-03-24T19:10:06.127Z,7.72
2019-03-24T19:12:37.629Z,10.93
2019-03-24T19:15:10.716Z,9.05
2019-03-24T19:17:42.240Z,10.13
2019-03-24T19:20:14.814Z,10.93
2019-03-24T19:22:46.448Z,10.10
2019-03-24T19:25:18.516Z,10.58
2019-03-24T19:27:50.357Z,9.08
2019-03-24T19:30:27.985Z,9.15
2019-03-24T19:33:02.829Z,9.48
2019-03-24T19:35:34.451Z,10.70
2019-03-24T19:38:07.274Z,11.15
2019-03-24T19:40:38.815Z,10.95
2019-03-24T19:43:10.178Z,8.73
2019-03-24T19:45:41.580Z,10.32
2019-03-24T19:48:13.193Z,13.75
2019-03-24T19:50:44.560Z,10.38
2019-03-24T19:53:15.958Z,11.70
2019-03-24T19:55:47.345Z,14.18
2019-03-24T19:58:18.740Z,13.40
2019-03-24T20:00:50.168Z,11.43
2019-03-24T20:03:21.621Z,12.58
2019-03-24T20:05:53.025Z,8.43
2019-03-24T20:08:24.425Z,12.10
2019-03-24T20:10:55.849Z,12.63
2019-03-24T20:13:27.228Z,9.83
2019-03-24T20:15:58.686Z,12.13
2019-03-24T20:18:30.166Z,10.10
2019-03-24T20:21:01.510Z,12.55
2019-03-24T20:23:32.913Z,11.63
2019-03-24T20:26:04.616Z,19.42
2019-03-24T20:28:36.050Z,10.13
2019-03-24T20:31:07.481Z,11.65
2019-03-24T20:33:38.910Z,12.90
2019-03-24T20:36:10.282Z,11.90
2019-03-24T20:38:43.547Z,13.15
2019-03-24T20:41:14.944Z,14.68
2019-03-24T20:43:46.357Z,11.33
2019-03-24T20:46:18.812Z,14.03
2019-03-24T20:48:52.377Z,11.45
2019-03-24T20:51:24.961Z,10.78
2019-03-24T20:53:56.351Z,12.53
2019-03-24T20:56:27.770Z,9.00
2019-03-24T20:59:00.482Z,8.05
2019-03-24T21:01:31.887Z,8.10
2019-03-24T21:04:03.300Z,11.03
2019-03-24T21:06:34.719Z,13.40
2019-03-24T21:09:08.075Z,9.65
2019-03-24T21:11:39.488Z,7.35
2019-03-24T21:14:10.856Z,10.35
2019-03-24T21:16:42.259Z,8.40
2019-03-24T21:19:13.626Z,12.30
2019-03-24T21:21:45.013Z,8.73
2019-03-24T21:24:16.371Z,9.73
2019-03-24T21:26:47.767Z,8.93
2019-03-24T21:29:19.157Z,8.55
2019-03-24T21:31:50.754Z,12.00
2019-03-24T21:34:22.124Z,10.90
2019-03-24T21:36:55.007Z,8.50
2019-03-24T21:39:26.408Z,8.75
2019-03-24T21:41:57.808Z,7.28
2019-03-24T21:44:29.370Z,8.93
2019-03-24T21:47:00.828Z,9.68
2019-03-24T21:49:32.238Z,11.55
2019-03-24T21:52:03.729Z,8.95
2019-03-24T21:54:35.436Z,8.95
2019-03-24T21:57:09.662Z,10.48
2019-03-24T21:59:42.388Z,9.25
2019-03-24T22:02:16.950Z,10.32
2019-03-24T22:04:48.726Z,9.85
2019-03-24T22:07:21.556Z,9.93
2019-03-24T22:09:54.593Z,10.18
2019-03-24T22:12:26.273Z,9.90
2019-03-24T22:14:59.651Z,11.38
2019-03-24T22:17:35.172Z,7.03
2019-03-24T22:20:09.504Z,11.53
2019-03-24T22:22:40.881Z,8.00
2019-03-24T22:25:12.245Z,11.60
2019-03-24T22:27:46.402Z,9.03
2019-03-24T22:30:17.156Z,9.85
2019-03-24T22:32:48.536Z,10.65
2019-03-24T22:35:24.047Z,11.57
2019-03-24T22:38:00.293Z,14.85
2019-03-24T22:40:37.074Z,14.93
2019-03-24T22:43:13.817Z,11.12
2019-03-24T22:45:45.318Z,15.23
2019-03-24T22:48:18.804Z,15.08
2019-03-24T22:50:50.738Z,14.75
2019-03-24T22:53:22.116Z,11.57
2019-03-24T22:55:53.768Z,16.95
2019-03-24T22:58:25.857Z,12.73
2019-03-24T23:00:58.072Z,12.98
2019-03-24T23:03:29.502Z,15.08
2019-03-24T23:06:00.882Z,13.10
2019-03-24T23:08:32.688Z,17.40
2019-03-24T23:11:04.117Z,15.30
2019-03-24T23:13:35.502Z,12.55
2019-03-24T23:16:06.995Z,11.30
2019-03-24T23:18:38.407Z,13.35
2019-03-24T23:21:10.140Z,17.92
2019-03-24T23:23:41.583Z,14.65
2019-03-24T23:26:13.009Z,12.80
2019-03-24T23:28:44.462Z,12.05
2019-03-24T23:31:15.812Z,12.85
2019-03-24T23:33:47.208Z,20.52
2019-03-24T23:36:18.562Z,14.53
2019-03-24T23:38:50.030Z,13.03
2019-03-24T23:41:21.413Z,14.70
2019-03-24T23:43:52.797Z,15.85
2019-03-24T23:46:24.183Z,17.82
2019-03-24T23:48:55.564Z,17.48
2019-03-24T23:51:26.989Z,16.73
2019-03-24T23:53:58.385Z,18.48
2019-03-24T23:56:29.744Z,15.75
2019-03-24T23:59:01.160Z,20.32
